createdAt,value
2022-09-20T04:30:57.587Z,7.89
2022-09-20T04:31:57.606Z,7.93
2022-09-20T04:32:57.508Z,7.96
2022-09-20T04:33:57.507Z,7.96
2022-09-20T04:34:57.479Z,7.94
2022-09-20T04:35:57.467Z,7.94
2022-09-20T04:36:57.555Z,7.94
2022-09-20T04:37:57.506Z,7.94
2022-09-20T04:38:57.478Z,7.93
2022-09-20T04:39:57.461Z,7.97
2022-09-20T04:40:57.420Z,8.02
2022-09-20T04:41:57.393Z,8.03
2022-09-20T04:42:57.384Z,8.03
2022-09-20T04:44:04.533Z,8.03
2022-09-20T04:44:57.355Z,8.03
2022-09-20T04:45:57.409Z,8.07
2022-09-20T04:46:57.332Z,8.03
2022-09-20T04:47:57.305Z,8.03
2022-09-20T04:48:57.336Z,8.04
2022-09-20T04:49:57.285Z,8.07
2022-09-20T04:50:57.283Z,8.07
2022-09-20T04:51:57.261Z,8.08
2022-09-20T04:52:57.243Z,8.11
2022-09-20T04:53:57.246Z,8.21
2022-09-20T04:54:57.305Z,8.22
2022-09-20T04:55:57.212Z,8.30
2022-09-20T04:56:57.364Z,8.30
2022-09-20T04:57:57.194Z,8.26
2022-09-20T04:58:57.177Z,8.25
2022-09-20T04:59:57.174Z,8.26
2022-09-20T05:00:57.202Z,8.25
2022-09-20T05:01:57.171Z,8.25
2022-09-20T05:02:57.113Z,8.28
2022-09-20T05:03:57.121Z,8.28
2022-09-20T05:04:57.090Z,8.33
2022-09-20T05:05:57.073Z,8.33
2022-09-20T05:06:57.056Z,8.33
2022-09-20T05:07:57.060Z,8.35
2022-09-20T05:08:58.979Z,8.35
2022-09-20T05:09:57.032Z,8.37
2022-09-20T05:10:57.032Z,8.39
2022-09-20T05:11:57.017Z,8.40
2022-09-20T05:12:56.980Z,8.40
2022-09-20T05:13:56.974Z,8.39
2022-09-20T05:14:56.961Z,8.37
2022-09-20T05:15:56.959Z,8.37
2022-09-20T05:16:57.025Z,8.39
2022-09-20T05:17:56.912Z,8.42
2022-09-20T05:18:56.902Z,8.84
2022-09-20T05:19:56.930Z,9.25
2022-09-20T05:20:56.881Z,9.31
2022-09-20T05:21:56.886Z,9.21
2022-09-20T05:22:56.843Z,9.10
2022-09-20T05:23:56.854Z,9.04
2022-09-20T05:24:56.848Z,8.96
2022-09-20T05:25:56.812Z,8.88
2022-09-20T05:26:56.795Z,8.84
2022-09-20T05:27:56.790Z,8.81
2022-09-20T05:28:56.779Z,8.78
2022-09-20T05:29:56.769Z,8.76
2022-09-20T05:30:56.739Z,8.75
2022-09-20T05:31:56.802Z,8.73
2022-09-20T05:32:56.728Z,8.72
2022-09-20T05:33:56.719Z,8.71
2022-09-20T05:34:56.719Z,8.73
2022-09-20T05:35:56.682Z,8.73
2022-09-20T05:36:56.657Z,8.72
2022-09-20T05:37:56.652Z,8.73
2022-09-20T05:38:58.053Z,8.72
2022-09-20T05:39:56.664Z,8.73
2022-09-20T05:40:56.608Z,8.76
2022-09-20T05:41:56.597Z,8.76
2022-09-20T05:42:56.578Z,8.79
2022-09-20T05:43:56.567Z,8.81
2022-09-20T05:44:56.566Z,8.84
2022-09-20T05:45:56.595Z,8.87
2022-09-20T05:46:56.527Z,8.86
2022-09-20T05:47:56.517Z,8.88
2022-09-20T05:48:56.498Z,8.90
2022-09-20T05:49:56.507Z,8.90
2022-09-20T05:50:57.810Z,8.91
2022-09-20T05:51:56.486Z,8.93
2022-09-20T05:52:56.447Z,8.94
2022-09-20T05:53:56.444Z,8.96
2022-09-20T05:54:56.444Z,8.99
2022-09-20T05:55:56.406Z,9.01
2022-09-20T05:56:56.394Z,9.04
2022-09-20T05:57:56.429Z,9.05
2022-09-20T05:58:56.365Z,9.04
2022-09-20T05:59:56.397Z,9.06
2022-09-20T06:00:56.383Z,9.09
2022-09-20T06:01:56.365Z,9.12
2022-09-20T06:02:56.314Z,9.15
2022-09-20T06:03:56.305Z,9.16
2022-09-20T06:04:56.294Z,9.20
2022-09-20T06:05:56.282Z,9.23
2022-09-20T06:06:56.272Z,9.27
2022-09-20T06:07:56.284Z,9.28
2022-09-20T06:08:56.253Z,9.30
2022-09-20T06:09:56.254Z,9.31
2022-09-20T06:10:56.205Z,9.28
2022-09-20T06:11:56.194Z,9.31
2022-09-20T06:12:56.181Z,9.32
2022-09-20T06:13:56.172Z,9.34
2022-09-20T06:14:56.163Z,9.34
2022-09-20T06:15:56.154Z,9.38
2022-09-20T06:16:56.131Z,9.39
2022-09-20T06:17:56.121Z,9.40
2022-09-20T06:18:56.102Z,9.43
2022-09-20T06:19:56.112Z,9.43
2022-09-20T06:20:56.082Z,9.43
2022-09-20T06:21:56.073Z,9.46
2022-09-20T06:22:56.051Z,9.46
2022-09-20T06:23:56.080Z,9.48
2022-09-20T06:24:56.022Z,9.50
2022-09-20T06:25:56.043Z,9.50
2022-09-20T06:26:56.001Z,9.56
2022-09-20T06:27:55.982Z,9.57
2022-09-20T06:28:58.370Z,9.64
2022-09-20T06:29:55.962Z,9.68
2022-09-20T06:30:56.002Z,9.71
2022-09-20T06:31:55.940Z,9.73
2022-09-20T06:32:55.930Z,9.73
2022-09-20T06:33:55.916Z,9.78
2022-09-20T06:34:55.930Z,9.83
2022-09-20T06:35:59.094Z,9.85
2022-09-20T06:36:55.859Z,9.91
2022-09-20T06:37:55.870Z,9.99
2022-09-20T06:38:55.929Z,10.03
2022-09-20T06:39:56.012Z,10.09
2022-09-20T06:40:55.828Z,10.19
2022-09-20T06:41:55.829Z,10.28
2022-09-20T06:42:55.813Z,10.32
2022-09-20T06:43:55.790Z,10.39
2022-09-20T06:44:55.770Z,10.47
2022-09-20T06:45:55.803Z,10.56
2022-09-20T06:46:55.771Z,10.63
2022-09-20T06:47:55.738Z,10.62
2022-09-20T06:48:55.719Z,10.66
2022-09-20T06:49:55.698Z,10.71
2022-09-20T06:50:55.699Z,10.76
2022-09-20T06:51:55.668Z,10.78
2022-09-20T06:52:55.667Z,10.83
2022-09-20T06:53:55.655Z,10.91
2022-09-20T06:54:55.660Z,10.94
2022-09-20T06:55:55.629Z,10.95
2022-09-20T06:56:55.599Z,10.98
2022-09-20T06:57:55.587Z,10.99
2022-09-20T06:58:55.576Z,11.07
2022-09-20T06:59:55.571Z,11.09
2022-09-20T07:00:55.653Z,11.14
2022-09-20T07:01:55.570Z,11.19
2022-09-20T07:02:55.542Z,11.27
2022-09-20T07:03:55.536Z,11.31
2022-09-20T07:04:55.506Z,11.34
2022-09-20T07:05:55.495Z,11.36
2022-09-20T07:06:55.468Z,11.41
2022-09-20T07:07:55.456Z,11.49
2022-09-20T07:08:55.576Z,11.54
2022-09-20T07:09:55.440Z,11.62
2022-09-20T07:10:55.446Z,11.62
2022-09-20T07:11:55.395Z,11.68
2022-09-20T07:12:55.415Z,11.75
2022-09-20T07:13:55.385Z,11.83
2022-09-20T07:14:55.365Z,11.82
2022-09-20T07:15:55.377Z,11.80
2022-09-20T07:16:55.387Z,11.82
2022-09-20T07:17:55.335Z,11.85
2022-09-20T07:18:55.315Z,11.93
2022-09-20T07:19:55.306Z,11.97
2022-09-20T07:20:55.295Z,12.08
2022-09-20T07:21:55.275Z,12.15
2022-09-20T07:22:55.255Z,12.21
2022-09-20T07:23:55.309Z,12.31
2022-09-20T07:24:55.477Z,12.41
2022-09-20T07:25:55.224Z,12.56
2022-09-20T07:26:55.204Z,12.66
2022-09-20T07:27:55.196Z,12.79
2022-09-20T07:28:55.175Z,12.92
2022-09-20T07:29:55.155Z,12.95
2022-09-20T07:30:55.198Z,13.04
2022-09-20T07:31:55.170Z,13.17
2022-09-20T07:32:55.124Z,13.21
2022-09-20T07:33:55.107Z,13.27
2022-09-20T07:34:55.232Z,13.41
2022-09-20T07:35:55.093Z,13.54
2022-09-20T07:36:55.106Z,13.62
2022-09-20T07:37:55.074Z,13.73
2022-09-20T07:38:55.119Z,13.76
2022-09-20T07:39:55.036Z,13.87
2022-09-20T07:40:55.033Z,13.95
2022-09-20T07:41:55.003Z,14.02
2022-09-20T07:42:56.281Z,13.98
2022-09-20T07:43:54.991Z,13.89
2022-09-20T07:44:54.963Z,13.81
2022-09-20T07:45:55.010Z,13.69
2022-09-20T07:46:54.942Z,13.58
2022-09-20T07:47:54.922Z,13.54
2022-09-20T07:48:54.904Z,13.52
2022-09-20T07:49:54.908Z,13.46
2022-09-20T07:50:54.893Z,13.41
2022-09-20T07:51:54.875Z,13.40
2022-09-20T07:52:54.953Z,13.37
2022-09-20T07:53:55.014Z,13.43
2022-09-20T07:54:54.852Z,13.46
2022-09-20T07:55:54.853Z,13.52
2022-09-20T07:56:54.812Z,13.59
2022-09-20T07:57:54.790Z,13.69
2022-09-20T07:58:54.775Z,13.70
2022-09-20T07:59:54.762Z,13.71
2022-09-20T08:00:54.773Z,13.80
2022-09-20T08:01:54.779Z,13.89
2022-09-20T08:02:54.721Z,14.01
2022-09-20T08:03:54.808Z,14.04
2022-09-20T08:04:54.693Z,14.06
2022-09-20T08:05:54.682Z,14.04
2022-09-20T08:06:54.682Z,14.12
2022-09-20T08:07:54.662Z,14.20
2022-09-20T08:08:54.642Z,14.27
2022-09-20T08:09:54.650Z,14.37
2022-09-20T08:10:54.622Z,14.37
2022-09-20T08:11:55.132Z,14.32
2022-09-20T08:14:11.043Z,14.12
2022-09-20T08:14:55.572Z,14.07
2022-09-20T08:15:54.583Z,14.07
2022-09-20T08:16:54.593Z,14.10
2022-09-20T08:17:54.530Z,14.10
2022-09-20T08:18:54.529Z,14.07
2022-09-20T08:19:54.492Z,14.06
2022-09-20T08:20:54.491Z,14.06
2022-09-20T08:21:54.499Z,14.10
2022-09-20T08:23:19.248Z,14.06
2022-09-20T08:23:55.480Z,13.98
2022-09-20T08:24:54.431Z,13.98
2022-09-20T08:25:54.431Z,13.91
2022-09-20T08:26:54.411Z,13.87
2022-09-20T08:27:54.419Z,13.88
2022-09-20T08:28:54.380Z,13.89
2022-09-20T08:29:54.389Z,13.92
2022-09-20T08:30:54.381Z,13.92
2022-09-20T08:31:54.388Z,13.96
2022-09-20T08:32:54.321Z,13.96
2022-09-20T08:33:54.310Z,14.01
2022-09-20T08:34:54.304Z,14.07
2022-09-20T08:35:57.822Z,14.13
2022-09-20T08:36:54.260Z,14.21
2022-09-20T08:37:54.425Z,14.29
2022-09-20T08:39:57.779Z,14.62
2022-09-20T08:40:54.264Z,14.67
2022-09-20T08:41:54.209Z,14.60
2022-09-20T08:42:54.189Z,14.53
2022-09-20T08:43:54.180Z,14.47
2022-09-20T08:45:01.443Z,14.50
2022-09-20T08:45:55.201Z,14.46
2022-09-20T08:46:54.148Z,14.43
2022-09-20T08:47:58.375Z,14.43
2022-09-20T08:48:54.103Z,14.49
2022-09-20T08:49:57.034Z,14.46
2022-09-20T08:50:54.079Z,14.43
2022-09-20T08:51:54.159Z,14.27
2022-09-20T08:52:59.822Z,14.24
2022-09-20T08:53:55.061Z,14.24
2022-09-20T08:54:54.062Z,14.16
2022-09-20T08:55:54.062Z,14.14
2022-09-20T08:56:53.999Z,14.14
2022-09-20T08:57:53.991Z,14.20
2022-09-20T08:58:53.978Z,14.21
2022-09-20T08:59:53.967Z,14.21
2022-09-20T09:00:53.977Z,14.27
2022-09-20T09:01:54.025Z,14.35
2022-09-20T09:02:53.920Z,14.37
2022-09-20T09:03:53.917Z,14.32
2022-09-20T09:04:53.925Z,14.32
2022-09-20T09:05:53.897Z,14.43
2022-09-20T09:06:53.887Z,14.53
2022-09-20T09:07:53.878Z,14.56
2022-09-20T09:08:53.846Z,14.56
2022-09-20T09:09:53.838Z,14.56
2022-09-20T09:10:53.827Z,14.49
2022-09-20T09:11:53.806Z,14.52
2022-09-20T09:12:53.788Z,14.57
2022-09-20T09:13:53.846Z,14.56
2022-09-20T09:14:53.758Z,14.52
2022-09-20T09:15:53.767Z,14.50
2022-09-20T09:16:53.786Z,14.62
2022-09-20T09:17:53.727Z,14.69
2022-09-20T09:18:53.708Z,14.71
2022-09-20T09:19:53.707Z,14.69
2022-09-20T09:20:53.697Z,14.83
2022-09-20T09:21:53.682Z,15.05
2022-09-20T09:22:53.667Z,15.35
2022-09-20T09:23:53.668Z,15.52
2022-09-20T09:24:53.628Z,15.70
2022-09-20T09:25:53.637Z,15.88
2022-09-20T09:26:53.609Z,15.82
2022-09-20T09:27:53.594Z,15.81
2022-09-20T09:28:53.595Z,15.76
2022-09-20T09:29:53.591Z,15.66
2022-09-20T09:30:53.557Z,15.67
2022-09-20T09:31:53.611Z,15.63
2022-09-20T09:32:53.526Z,15.68
2022-09-20T09:33:53.516Z,15.96
2022-09-20T09:34:53.499Z,16.01
2022-09-20T09:35:53.509Z,16.31
2022-09-20T09:36:53.467Z,16.74
2022-09-20T09:37:53.470Z,17.17
2022-09-20T09:38:53.445Z,17.40
2022-09-20T09:39:53.447Z,17.54
2022-09-20T09:40:53.450Z,17.57
2022-09-20T09:41:53.417Z,17.79
2022-09-20T09:42:53.386Z,17.78
2022-09-20T09:43:53.428Z,17.81
2022-09-20T09:44:53.357Z,17.95
2022-09-20T09:45:53.427Z,18.10
2022-09-20T09:46:53.338Z,18.29
2022-09-20T09:47:53.327Z,18.50
2022-09-20T09:48:53.309Z,18.82
2022-09-20T09:49:56.527Z,19.15
2022-09-20T09:50:54.297Z,19.42
2022-09-20T09:51:53.278Z,19.66
2022-09-20T09:52:53.267Z,19.58
2022-09-20T09:53:53.247Z,19.40
2022-09-20T09:54:53.237Z,18.95
2022-09-20T09:55:53.227Z,18.74
2022-09-20T09:56:53.217Z,18.59
2022-09-20T09:57:53.222Z,18.43
2022-09-20T09:58:53.257Z,18.02
2022-09-20T09:59:53.167Z,17.73
2022-09-20T10:00:53.196Z,17.41
2022-09-20T10:01:53.201Z,17.36
2022-09-20T10:02:53.125Z,17.18
2022-09-20T10:03:53.121Z,17.18
2022-09-20T10:04:53.122Z,17.08
2022-09-20T10:05:53.099Z,17.04
2022-09-20T10:06:53.087Z,16.93
2022-09-20T10:07:53.066Z,16.88
2022-09-20T10:08:53.045Z,16.71
2022-09-20T10:09:53.040Z,16.50
2022-09-20T10:10:53.031Z,16.35
2022-09-20T10:11:53.032Z,16.33
2022-09-20T10:12:53.009Z,16.26
2022-09-20T10:13:53.068Z,16.14
2022-09-20T10:14:52.983Z,15.92
2022-09-20T10:15:52.992Z,15.84
2022-09-20T10:16:53.074Z,15.82
2022-09-20T10:17:52.947Z,15.74
2022-09-20T10:18:52.916Z,15.75
2022-09-20T10:19:52.907Z,15.72
2022-09-20T10:20:52.908Z,15.70
2022-09-20T10:21:52.888Z,15.72
2022-09-20T10:23:24.144Z,15.84
2022-09-20T10:24:09.291Z,15.97
2022-09-20T10:24:53.835Z,16.06
2022-09-20T10:25:52.827Z,16.04
2022-09-20T10:26:52.817Z,15.93
2022-09-20T10:27:52.797Z,15.88
2022-09-20T10:28:52.827Z,15.89
2022-09-20T10:29:52.776Z,15.84
2022-09-20T10:30:52.850Z,15.93
2022-09-20T10:31:52.758Z,16.15
2022-09-20T10:32:52.746Z,16.81
2022-09-20T10:33:52.738Z,18.00
2022-09-20T10:34:52.697Z,19.10
2022-09-20T10:35:52.697Z,19.90
2022-09-20T10:36:52.688Z,20.61
2022-09-20T10:37:52.677Z,21.36
2022-09-20T10:38:52.655Z,21.35
2022-09-20T10:39:52.638Z,20.64
2022-09-20T10:40:52.617Z,19.98
2022-09-20T10:41:52.626Z,19.31
2022-09-20T10:42:52.587Z,18.62
2022-09-20T10:43:52.589Z,18.28
2022-09-20T10:44:59.630Z,17.74
2022-09-20T10:46:27.581Z,17.17
2022-09-20T10:46:53.580Z,16.85
2022-09-20T10:47:52.546Z,16.53
2022-09-20T10:48:52.522Z,16.35
2022-09-20T10:49:52.501Z,16.25
2022-09-20T10:50:52.491Z,16.23
2022-09-20T10:51:52.491Z,16.18
2022-09-20T10:52:52.470Z,16.15
2022-09-20T10:53:52.451Z,16.11
2022-09-20T10:54:52.441Z,16.06
2022-09-20T10:55:52.420Z,16.04
2022-09-20T10:56:52.421Z,16.01
2022-09-20T10:57:52.398Z,15.93
2022-09-20T10:58:52.393Z,15.85
2022-09-20T10:59:52.371Z,15.86
2022-09-20T11:00:52.427Z,15.92
2022-09-20T11:01:52.499Z,15.94
2022-09-20T11:02:52.331Z,15.78
2022-09-20T11:03:52.318Z,15.70
2022-09-20T11:04:52.310Z,15.66
2022-09-20T11:05:52.292Z,16.09
2022-09-20T11:06:52.301Z,17.73
2022-09-20T11:07:52.262Z,18.55
2022-09-20T11:08:52.263Z,19.69
2022-09-20T11:09:52.239Z,20.27
2022-09-20T11:10:52.323Z,21.08
2022-09-20T11:11:52.221Z,22.17
2022-09-20T11:12:52.230Z,22.78
2022-09-20T11:13:52.277Z,22.82
2022-09-20T11:14:52.192Z,22.64
2022-09-20T11:15:52.161Z,23.04
2022-09-20T11:16:52.248Z,23.24
2022-09-20T11:17:52.140Z,23.05
2022-09-20T11:18:52.203Z,22.47
2022-09-20T11:19:52.111Z,22.57
2022-09-20T11:20:52.092Z,21.50
2022-09-20T11:21:52.094Z,20.91
2022-09-20T11:22:52.071Z,20.21
2022-09-20T11:23:52.069Z,19.65
2022-09-20T11:24:52.039Z,19.17
2022-09-20T11:25:52.034Z,18.99
2022-09-20T11:26:52.082Z,18.98
2022-09-20T11:27:52.002Z,18.94
2022-09-20T11:28:51.982Z,19.01
2022-09-20T11:29:51.980Z,18.80
2022-09-20T11:30:51.964Z,18.61
2022-09-20T11:31:51.999Z,18.42
2022-09-20T11:32:51.951Z,18.21
2022-09-20T11:33:51.932Z,18.10
2022-09-20T11:34:51.903Z,17.97
2022-09-20T11:35:51.896Z,17.81
2022-09-20T11:36:51.894Z,17.84
2022-09-20T11:37:51.878Z,17.74
2022-09-20T11:38:53.386Z,17.66
2022-09-20T11:39:51.842Z,17.50
2022-09-20T11:40:51.852Z,17.32
2022-09-20T11:41:51.822Z,17.29
2022-09-20T11:42:51.802Z,17.35
2022-09-20T11:43:51.922Z,17.44
2022-09-20T11:44:51.800Z,17.59
2022-09-20T11:45:51.836Z,17.95
2022-09-20T11:46:51.751Z,18.29
2022-09-20T11:47:55.772Z,18.22
2022-09-20T11:48:51.723Z,18.28
2022-09-20T11:49:51.712Z,18.31
2022-09-20T11:50:51.700Z,18.42
2022-09-20T11:51:51.701Z,18.18
2022-09-20T11:52:51.663Z,18.17
2022-09-20T11:53:51.663Z,18.17
2022-09-20T11:54:51.645Z,18.18
2022-09-20T11:55:51.657Z,18.61
2022-09-20T11:56:51.625Z,18.79
2022-09-20T11:57:51.612Z,18.68
2022-09-20T11:58:51.593Z,18.55
2022-09-20T11:59:51.583Z,18.74
2022-09-20T12:00:51.581Z,20.13
2022-09-20T12:01:51.619Z,20.95
2022-09-20T12:02:51.710Z,21.48
2022-09-20T12:03:57.096Z,21.90
2022-09-20T12:04:52.503Z,21.13
2022-09-20T12:05:51.543Z,20.81
2022-09-20T12:06:51.502Z,20.87
2022-09-20T12:07:51.483Z,21.30
2022-09-20T12:08:51.470Z,21.46
2022-09-20T12:09:51.454Z,21.90
2022-09-20T12:10:51.434Z,22.60
2022-09-20T12:11:51.455Z,22.83
2022-09-20T12:12:51.404Z,23.17
2022-09-20T12:13:51.406Z,23.58
2022-09-20T12:14:51.383Z,23.20
2022-09-20T12:15:51.372Z,23.23
2022-09-20T12:16:51.474Z,23.45
2022-09-20T12:17:51.355Z,22.82
2022-09-20T12:18:51.334Z,21.27
2022-09-20T12:19:51.324Z,20.27
2022-09-20T12:20:51.306Z,19.95
2022-09-20T12:21:51.324Z,20.41
2022-09-20T12:22:51.277Z,20.98
2022-09-20T12:23:51.265Z,21.88
2022-09-20T12:24:51.246Z,22.57
2022-09-20T12:25:51.243Z,22.39
2022-09-20T12:26:51.242Z,21.32
2022-09-20T12:27:51.215Z,21.17
2022-09-20T12:28:51.195Z,21.13
2022-09-20T12:29:51.187Z,21.24
2022-09-20T12:30:52.036Z,20.56
2022-09-20T12:31:51.213Z,19.94
2022-09-20T12:32:51.146Z,19.60
2022-09-20T12:33:51.136Z,18.95
2022-09-20T12:34:51.212Z,18.46
2022-09-20T12:35:51.115Z,18.67
2022-09-20T12:36:51.098Z,20.02
2022-09-20T12:37:51.097Z,20.84
2022-09-20T12:38:51.085Z,21.38
2022-09-20T12:39:51.058Z,22.12
2022-09-20T12:40:51.037Z,22.80
2022-09-20T12:41:51.027Z,23.29
2022-09-20T12:42:51.027Z,23.58
2022-09-20T12:43:51.010Z,23.50
2022-09-20T12:44:50.988Z,23.46
2022-09-20T12:45:51.034Z,23.17
2022-09-20T12:46:50.981Z,23.46
2022-09-20T12:47:50.958Z,23.90
2022-09-20T12:48:50.937Z,24.27
2022-09-20T12:49:50.936Z,24.17
2022-09-20T12:50:50.908Z,24.10
2022-09-20T12:51:50.935Z,23.82
2022-09-20T12:52:50.896Z,23.62
2022-09-20T12:53:50.881Z,23.80
2022-09-20T12:54:50.867Z,23.98
2022-09-20T12:55:50.850Z,24.14
2022-09-20T12:56:50.848Z,24.26
2022-09-20T12:57:50.830Z,23.86
2022-09-20T12:58:50.810Z,23.80
2022-09-20T12:59:50.800Z,23.65
2022-09-20T13:00:50.849Z,23.67
2022-09-20T13:01:50.824Z,23.79
2022-09-20T13:02:50.779Z,23.86
2022-09-20T13:03:50.753Z,24.05
2022-09-20T13:04:50.730Z,24.20
2022-09-20T13:05:50.720Z,24.29
2022-09-20T13:06:50.723Z,24.29
2022-09-20T13:07:50.702Z,24.20
2022-09-20T13:08:50.681Z,24.64
2022-09-20T13:09:50.681Z,24.98
2022-09-20T13:10:50.661Z,24.88
2022-09-20T13:11:50.664Z,24.57
2022-09-20T13:12:54.441Z,24.05
2022-09-20T13:13:50.642Z,23.57
2022-09-20T13:14:50.611Z,23.50
2022-09-20T13:15:50.602Z,23.12
2022-09-20T13:16:50.592Z,23.22
2022-09-20T13:17:50.572Z,22.92
2022-09-20T13:18:50.554Z,22.99
2022-09-20T13:19:50.553Z,23.17
2022-09-20T13:20:50.537Z,23.50
2022-09-20T13:21:50.534Z,23.79
2022-09-20T13:22:50.504Z,23.82
2022-09-20T13:23:50.502Z,23.82
2022-09-20T13:24:50.487Z,23.77
2022-09-20T13:25:50.474Z,23.83
2022-09-20T13:26:50.476Z,24.14
2022-09-20T13:27:50.586Z,24.22
2022-09-20T13:28:50.435Z,24.22
2022-09-20T13:29:50.425Z,23.61
2022-09-20T13:30:50.406Z,23.45
2022-09-20T13:31:50.451Z,23.22
2022-09-20T13:32:50.385Z,22.90
2022-09-20T13:33:50.376Z,21.76
2022-09-20T13:34:50.357Z,20.72
2022-09-20T13:35:50.356Z,20.20
2022-09-20T13:36:55.370Z,19.70
2022-09-20T13:37:51.326Z,19.39
2022-09-20T13:38:50.316Z,19.10
2022-09-20T13:39:50.306Z,18.84
2022-09-20T13:40:50.298Z,19.18
2022-09-20T13:41:50.288Z,20.43
2022-09-20T13:42:50.268Z,20.71
2022-09-20T13:43:50.257Z,20.25
2022-09-20T13:44:50.237Z,20.89
2022-09-20T13:45:50.271Z,20.23
2022-09-20T13:46:50.236Z,19.60
2022-09-20T13:47:50.199Z,19.15
2022-09-20T13:48:50.188Z,18.95
2022-09-20T13:49:50.168Z,18.84
2022-09-20T13:50:53.488Z,18.65
2022-09-20T13:51:50.157Z,18.77
2022-09-20T13:52:50.148Z,20.28
2022-09-20T13:53:50.118Z,21.53
2022-09-20T13:54:50.109Z,22.25
2022-09-20T13:55:50.088Z,22.50
2022-09-20T13:56:50.097Z,21.51
2022-09-20T13:57:50.068Z,20.87
2022-09-20T13:58:50.059Z,20.21
2022-09-20T13:59:50.039Z,19.75
2022-09-20T14:00:50.126Z,19.33
2022-09-20T14:01:50.064Z,18.84
2022-09-20T14:02:50.010Z,18.40
2022-09-20T14:03:49.989Z,18.02
2022-09-20T14:04:49.981Z,17.71
2022-09-20T14:05:49.968Z,17.48
2022-09-20T14:06:49.978Z,17.41
2022-09-20T14:07:49.938Z,17.48
2022-09-20T14:08:49.930Z,17.62
2022-09-20T14:09:49.910Z,17.62
2022-09-20T14:10:49.908Z,17.57
2022-09-20T14:11:49.898Z,17.62
2022-09-20T14:12:49.959Z,17.59
2022-09-20T14:13:49.859Z,17.53
2022-09-20T14:14:49.862Z,17.53
2022-09-20T14:15:49.831Z,18.00
2022-09-20T14:16:49.831Z,18.18
2022-09-20T14:17:49.811Z,18.29
2022-09-20T14:18:49.801Z,18.49
2022-09-20T14:19:49.808Z,18.52
2022-09-20T14:20:49.780Z,18.46
2022-09-20T14:21:49.771Z,18.49
2022-09-20T14:22:49.749Z,18.40
2022-09-20T14:23:49.730Z,18.37
2022-09-20T14:24:49.720Z,18.40
2022-09-20T14:25:49.700Z,18.40
2022-09-20T14:26:49.701Z,18.34
2022-09-20T14:27:49.677Z,18.31
2022-09-20T14:28:49.659Z,18.37
2022-09-20T14:29:49.651Z,18.44
2022-09-20T14:30:49.640Z,18.82
2022-09-20T14:31:49.658Z,19.42
2022-09-20T14:32:49.618Z,20.66
2022-09-20T14:33:54.252Z,21.53
2022-09-20T14:34:50.591Z,21.08
2022-09-20T14:35:49.563Z,20.39
2022-09-20T14:36:49.591Z,19.70
2022-09-20T14:37:49.540Z,19.24
2022-09-20T14:38:49.531Z,18.94
2022-09-20T14:39:49.510Z,18.62
2022-09-20T14:40:49.502Z,18.43
2022-09-20T14:41:49.501Z,18.18
2022-09-20T14:42:49.479Z,18.03
2022-09-20T14:43:49.461Z,17.79
2022-09-20T14:44:49.451Z,17.54
2022-09-20T14:45:49.474Z,17.41
2022-09-20T14:46:49.430Z,17.23
2022-09-20T14:47:49.410Z,17.14
2022-09-20T14:48:49.401Z,17.06
2022-09-20T14:49:49.381Z,16.90
2022-09-20T14:50:49.381Z,16.88
2022-09-20T14:51:49.371Z,16.80
2022-09-20T14:52:49.353Z,16.68
2022-09-20T14:53:49.332Z,16.55
2022-09-20T14:54:49.321Z,16.48
2022-09-20T14:55:49.309Z,16.45
2022-09-20T14:56:49.323Z,16.45
2022-09-20T14:57:49.293Z,16.48
2022-09-20T14:58:49.261Z,16.45
2022-09-20T14:59:49.270Z,16.44
2022-09-20T15:00:49.276Z,16.38
2022-09-20T15:01:49.330Z,16.23
2022-09-20T15:02:49.275Z,16.12
2022-09-20T15:03:49.191Z,16.03
2022-09-20T15:04:49.190Z,15.96
2022-09-20T15:05:49.171Z,15.84
2022-09-20T15:06:49.169Z,15.78
2022-09-20T15:07:49.158Z,15.75
2022-09-20T15:08:49.130Z,15.76
2022-09-20T15:09:49.110Z,15.70
2022-09-20T15:10:49.110Z,15.68
2022-09-20T15:11:49.091Z,15.67
2022-09-20T15:12:49.098Z,15.67
2022-09-20T15:13:49.070Z,15.67
2022-09-20T15:14:49.050Z,15.66
2022-09-20T15:15:49.040Z,15.63
2022-09-20T15:16:49.037Z,15.60
2022-09-20T15:17:49.031Z,15.61
2022-09-20T15:18:49.001Z,15.60
2022-09-20T15:19:48.980Z,15.59
2022-09-20T15:20:48.970Z,15.63
2022-09-20T15:21:48.970Z,15.61
2022-09-20T15:22:48.949Z,15.63
2022-09-20T15:23:48.920Z,15.61
2022-09-20T15:24:48.920Z,15.59
2022-09-20T15:25:48.900Z,15.54
2022-09-20T15:26:48.978Z,15.54
2022-09-20T15:27:48.870Z,15.52
2022-09-20T15:28:48.872Z,15.48
2022-09-20T15:29:48.850Z,15.43
2022-09-20T15:30:48.829Z,15.42
2022-09-20T15:31:48.939Z,15.41
2022-09-20T15:32:48.810Z,15.43
2022-09-20T15:33:48.789Z,15.48
2022-09-20T15:34:48.789Z,15.52
2022-09-20T15:35:48.770Z,15.54
2022-09-20T15:36:48.761Z,15.57
2022-09-20T15:37:48.760Z,15.60
2022-09-20T15:38:48.729Z,15.54
2022-09-20T15:39:48.719Z,15.56
2022-09-20T15:40:48.698Z,15.61
2022-09-20T15:41:48.690Z,15.66
2022-09-20T15:42:48.687Z,15.64
2022-09-20T15:43:48.659Z,15.59
2022-09-20T15:44:48.648Z,15.57
2022-09-20T15:45:48.666Z,15.57
2022-09-20T15:46:48.619Z,15.56
2022-09-20T15:47:48.629Z,15.60
2022-09-20T15:48:48.590Z,15.61
2022-09-20T15:49:48.586Z,15.60
2022-09-20T15:50:48.567Z,15.59
2022-09-20T15:51:48.561Z,15.54
2022-09-20T15:52:48.548Z,15.56
2022-09-20T15:53:48.546Z,15.52
2022-09-20T15:54:48.509Z,15.46
2022-09-20T15:55:48.510Z,15.46
2022-09-20T15:56:48.497Z,15.46
2022-09-20T15:57:48.488Z,15.45
2022-09-20T15:58:48.448Z,15.43
2022-09-20T15:59:48.448Z,15.43
2022-09-20T16:00:48.465Z,15.41
2022-09-20T16:01:48.470Z,15.39
2022-09-20T16:02:48.416Z,15.39
2022-09-20T16:03:48.388Z,15.42
2022-09-20T16:04:48.377Z,15.48
2022-09-20T16:05:48.368Z,16.04
2022-09-20T16:06:48.347Z,16.67
2022-09-20T16:07:48.355Z,17.28
2022-09-20T16:08:48.318Z,17.30
2022-09-20T16:09:48.307Z,16.88
2022-09-20T16:10:48.298Z,16.53
2022-09-20T16:11:48.289Z,16.25
2022-09-20T16:12:48.279Z,16.03
2022-09-20T16:13:48.261Z,15.88
2022-09-20T16:14:48.245Z,15.74
2022-09-20T16:15:48.237Z,15.61
2022-09-20T16:16:48.240Z,15.45
2022-09-20T16:17:48.219Z,15.33
2022-09-20T16:18:48.187Z,15.20
2022-09-20T16:19:48.198Z,15.08
2022-09-20T16:20:48.157Z,15.01
2022-09-20T16:21:48.158Z,14.93
2022-09-20T16:22:48.159Z,14.88
2022-09-20T16:23:48.127Z,14.84
2022-09-20T16:24:48.129Z,14.84
2022-09-20T16:25:48.105Z,14.83
2022-09-20T16:26:48.086Z,14.83
2022-09-20T16:27:48.075Z,14.81
2022-09-20T16:28:48.095Z,14.83
2022-09-20T16:29:48.048Z,14.78
2022-09-20T16:30:48.037Z,14.74
2022-09-20T16:31:48.074Z,14.74
2022-09-20T16:32:47.999Z,15.03
2022-09-20T16:33:47.998Z,15.67
2022-09-20T16:34:48.005Z,15.74
2022-09-20T16:35:48.098Z,15.49
2022-09-20T16:36:47.937Z,15.33
2022-09-20T16:37:47.945Z,15.20
2022-09-20T16:38:47.932Z,15.08
2022-09-20T16:39:47.919Z,14.99
2022-09-20T16:40:47.887Z,14.90
2022-09-20T16:41:47.887Z,14.80
2022-09-20T16:42:52.131Z,14.69
2022-09-20T16:43:47.867Z,14.61
2022-09-20T16:44:54.887Z,14.53
2022-09-20T16:45:47.852Z,14.44
2022-09-20T16:46:47.816Z,14.35
2022-09-20T16:47:47.807Z,14.29
2022-09-20T16:48:47.804Z,14.25
2022-09-20T16:49:47.804Z,14.21
2022-09-20T16:50:47.754Z,14.19
2022-09-20T16:51:47.753Z,14.17
2022-09-20T16:52:47.734Z,14.25
2022-09-20T16:53:47.745Z,14.27
2022-09-20T16:54:47.711Z,14.24
2022-09-20T16:55:47.693Z,14.19
2022-09-20T16:56:47.676Z,14.12
2022-09-20T16:57:47.681Z,14.06
2022-09-20T16:58:47.682Z,14.02
2022-09-20T16:59:47.643Z,13.95
2022-09-20T17:00:47.672Z,13.94
2022-09-20T17:01:47.623Z,13.92
2022-09-20T17:02:48.000Z,13.92
2022-09-20T17:03:47.594Z,13.91
2022-09-20T17:04:47.645Z,13.83
2022-09-20T17:05:47.571Z,13.83
2022-09-20T17:06:47.553Z,13.80
2022-09-20T17:07:47.542Z,13.80
2022-09-20T17:08:47.531Z,13.77
2022-09-20T17:09:47.523Z,13.76
2022-09-20T17:10:47.502Z,13.73
2022-09-20T17:11:47.523Z,13.73
2022-09-20T17:12:47.582Z,13.73
2022-09-20T17:13:47.463Z,13.76
2022-09-20T17:14:47.473Z,13.77
2022-09-20T17:15:47.446Z,13.74
2022-09-20T17:16:47.429Z,13.73
2022-09-20T17:17:47.412Z,13.65
2022-09-20T17:18:47.392Z,13.56
2022-09-20T17:19:47.392Z,13.51
2022-09-20T17:20:47.371Z,13.46
2022-09-20T17:21:47.384Z,13.41
2022-09-20T17:22:47.332Z,13.38
2022-09-20T17:23:50.791Z,13.32
2022-09-20T17:24:47.325Z,13.29
2022-09-20T17:25:47.329Z,13.25
2022-09-20T17:26:47.326Z,13.21
2022-09-20T17:27:47.337Z,13.20
2022-09-20T17:28:47.262Z,13.14